createdAt,value
2023-04-08T00:01:23.949Z,9.01
2023-04-08T00:03:54.102Z,8.91
2023-04-08T00:06:28.904Z,8.92
2023-04-08T00:09:05.139Z,8.87
2023-04-08T00:11:34.063Z,8.83
2023-04-08T00:14:09.719Z,8.87
2023-04-08T00:16:40.642Z,8.89
2023-04-08T00:19:09.481Z,8.99
2023-04-08T00:21:38.397Z,8.90
2023-04-08T00:24:09.104Z,8.81
2023-04-08T00:26:38.299Z,8.82
2023-04-08T00:29:19.301Z,8.79
2023-04-08T00:31:49.949Z,8.83
2023-04-08T00:34:23.024Z,8.80
2023-04-08T00:36:53.003Z,8.76
2023-04-08T00:39:22.053Z,8.78
2023-04-08T00:41:51.796Z,8.90
2023-04-08T00:44:20.909Z,8.88
2023-04-08T00:46:51.103Z,8.93
2023-04-08T00:49:21.324Z,8.79
2023-04-08T00:51:52.565Z,9.18
2023-04-08T00:57:51.618Z,8.85
2023-04-08T01:00:23.651Z,8.81
2023-04-08T01:03:04.257Z,8.79
2023-04-08T01:05:48.783Z,8.76
2023-04-08T01:08:17.546Z,8.77
2023-04-08T01:10:46.165Z,8.79
2023-04-08T01:13:15.031Z,8.66
2023-04-08T01:15:43.739Z,8.59
2023-04-08T01:18:13.736Z,8.63
2023-04-08T01:20:42.669Z,8.70
2023-04-08T01:23:13.696Z,8.62
2023-04-08T01:25:54.722Z,8.73
2023-04-08T01:28:24.021Z,8.73
2023-04-08T01:30:53.086Z,8.71
2023-04-08T01:33:22.479Z,8.62
2023-04-08T01:35:52.198Z,8.50
2023-04-08T01:38:22.085Z,8.48
2023-04-08T01:40:50.448Z,8.54
2023-04-08T01:43:18.928Z,8.49
2023-04-08T01:45:47.814Z,8.43
2023-04-08T01:48:16.556Z,8.37
2023-04-08T01:50:45.209Z,8.54
2023-04-08T01:53:15.126Z,8.70
2023-04-08T01:55:46.232Z,8.99
2023-04-08T01:58:18.648Z,9.13
2023-04-08T02:00:47.476Z,8.93
2023-04-08T02:03:18.029Z,8.93
2023-04-08T02:05:48.414Z,8.98
2023-04-08T02:08:16.827Z,8.99
2023-04-08T02:10:45.235Z,9.06
2023-04-08T02:13:13.550Z,9.11
2023-04-08T02:15:43.097Z,9.12
2023-04-08T02:18:17.274Z,9.22
2023-04-08T02:21:07.193Z,9.20
2023-04-08T02:23:42.293Z,9.21
2023-04-08T02:26:14.741Z,9.23
2023-04-08T02:28:43.512Z,9.20
2023-04-08T02:31:16.337Z,9.20
2023-04-08T02:33:47.800Z,9.18
2023-04-08T02:36:16.250Z,9.19
2023-04-08T02:38:50.570Z,9.15
2023-04-08T02:41:21.666Z,9.08
2023-04-08T02:43:50.103Z,9.07
2023-04-08T02:46:21.167Z,9.14
2023-04-08T02:48:50.848Z,9.23
2023-04-08T02:51:19.332Z,9.23
2023-04-08T02:53:47.637Z,9.27
2023-04-08T02:56:16.426Z,9.29
2023-04-08T02:58:44.910Z,9.30
2023-04-08T03:01:14.445Z,9.18
2023-04-08T03:03:46.002Z,9.18
2023-04-08T03:06:14.588Z,9.15
2023-04-08T03:08:43.322Z,9.20
2023-04-08T03:11:13.028Z,9.20
2023-04-08T03:13:41.930Z,9.05
2023-04-08T03:16:11.020Z,9.13
2023-04-08T03:18:40.742Z,9.05
2023-04-08T03:21:09.450Z,9.05
2023-04-08T03:23:37.852Z,9.08
2023-04-08T03:26:07.144Z,9.06
2023-04-08T03:28:35.955Z,9.06
2023-04-08T03:31:04.894Z,9.07
2023-04-08T03:33:33.959Z,9.08
2023-04-08T03:36:02.337Z,9.11
2023-04-08T03:38:31.707Z,9.01
2023-04-08T03:41:00.384Z,8.96
2023-04-08T03:43:29.444Z,9.07
2023-04-08T03:45:57.876Z,9.08
2023-04-08T03:48:26.673Z,9.07
2023-04-08T03:50:55.261Z,9.00
2023-04-08T03:53:24.227Z,9.06
2023-04-08T03:55:53.347Z,9.11
2023-04-08T03:58:21.770Z,9.10
2023-04-08T04:00:50.752Z,9.15
2023-04-08T04:03:20.290Z,9.21
2023-04-08T04:05:54.040Z,9.15
2023-04-08T04:08:23.194Z,9.19
2023-04-08T04:10:52.254Z,9.25
2023-04-08T04:13:22.194Z,9.28
2023-04-08T04:15:51.239Z,9.28
2023-04-08T04:18:19.961Z,9.19
2023-04-08T04:20:48.318Z,9.21
2023-04-08T04:23:16.830Z,9.24
2023-04-08T04:25:45.542Z,9.08
2023-04-08T04:28:16.621Z,9.04
2023-04-08T04:30:47.683Z,9.00
2023-04-08T04:33:16.310Z,8.94
2023-04-08T04:35:45.741Z,9.01
2023-04-08T04:38:14.495Z,9.06
2023-04-08T04:40:43.084Z,9.00
2023-04-08T04:43:12.276Z,9.00
2023-04-08T04:45:47.546Z,9.00
2023-04-08T04:48:16.532Z,9.02
2023-04-08T04:50:45.444Z,8.93
2023-04-08T04:53:19.156Z,8.98
2023-04-08T04:55:49.147Z,8.95
2023-04-08T04:58:18.300Z,9.04
2023-04-08T05:00:47.139Z,8.91
2023-04-08T05:03:16.934Z,8.99
2023-04-08T05:05:55.375Z,8.85
2023-04-08T05:08:25.943Z,8.83
2023-04-08T05:10:56.887Z,8.87
2023-04-08T05:13:25.844Z,8.74
2023-04-08T05:15:56.444Z,8.83
2023-04-08T05:18:25.257Z,8.98
2023-04-08T05:20:54.072Z,8.87
2023-04-08T05:23:22.764Z,8.90
2023-04-08T05:25:51.674Z,8.81
2023-04-08T05:28:21.918Z,8.66
2023-04-08T05:30:51.773Z,8.67
2023-04-08T05:33:20.653Z,8.56
2023-04-08T05:35:53.423Z,8.52
2023-04-08T05:38:22.259Z,8.56
2023-04-08T05:40:50.944Z,8.47
2023-04-08T05:43:19.647Z,8.53
2023-04-08T05:45:49.271Z,8.48
2023-04-08T05:48:18.065Z,8.51
2023-04-08T05:50:48.714Z,8.38
2023-04-08T05:53:17.746Z,8.41
2023-04-08T05:55:46.495Z,8.45
2023-04-08T05:58:14.993Z,8.29
2023-04-08T06:00:43.588Z,8.19
2023-04-08T06:03:20.312Z,7.96
2023-04-08T06:05:51.637Z,8.18
2023-04-08T06:08:21.479Z,7.96
2023-04-08T06:10:53.562Z,7.89
2023-04-08T06:13:26.071Z,7.69
2023-04-08T06:15:54.830Z,7.70
2023-04-08T06:18:30.794Z,7.79
2023-04-08T06:21:00.002Z,7.71
2023-04-08T06:23:28.669Z,7.63
2023-04-08T06:25:57.645Z,7.63
2023-04-08T06:28:26.513Z,7.70
2023-04-08T06:30:56.122Z,7.66
2023-04-08T06:33:24.985Z,7.76
2023-04-08T06:36:02.192Z,7.60
2023-04-08T06:38:32.487Z,7.54
2023-04-08T06:41:04.675Z,7.45
2023-04-08T06:43:33.682Z,7.62
2023-04-08T06:46:02.183Z,7.43
2023-04-08T06:48:32.785Z,7.48
2023-04-08T06:51:01.955Z,7.46
2023-04-08T06:53:31.677Z,7.48
2023-04-08T06:56:00.737Z,7.61
2023-04-08T06:58:31.549Z,7.68
2023-04-08T07:01:01.256Z,7.56
2023-04-08T07:03:31.252Z,7.42
2023-04-08T07:06:00.507Z,7.38
2023-04-08T07:08:29.067Z,7.50
2023-04-08T07:11:01.247Z,7.53
2023-04-08T07:13:29.994Z,7.46
2023-04-08T07:15:58.588Z,7.30
2023-04-08T07:18:27.823Z,7.16
2023-04-08T07:20:56.685Z,6.98
2023-04-08T07:23:28.168Z,6.85
2023-04-08T07:25:56.985Z,6.74
2023-04-08T07:28:26.023Z,6.74
2023-04-08T07:30:54.813Z,6.72
2023-04-08T07:33:24.068Z,6.75
2023-04-08T07:35:53.364Z,6.76
2023-04-08T07:38:21.985Z,6.59
2023-04-08T07:40:50.952Z,6.52
2023-04-08T07:43:19.705Z,6.56
2023-04-08T07:45:48.750Z,6.73
2023-04-08T07:48:17.627Z,6.62
2023-04-08T07:51:09.016Z,6.76
2023-04-08T07:53:37.540Z,6.58
2023-04-08T07:56:15.140Z,6.33
2023-04-08T07:58:44.029Z,6.11
2023-04-08T08:01:16.603Z,6.29
2023-04-08T08:03:48.373Z,6.21
2023-04-08T08:06:17.531Z,6.28
2023-04-08T08:08:47.383Z,5.99
2023-04-08T08:11:16.112Z,5.98
2023-04-08T08:13:44.836Z,6.25
2023-04-08T08:16:14.357Z,6.15
2023-04-08T08:18:43.041Z,6.06
2023-04-08T08:21:16.236Z,6.00
2023-04-08T08:23:45.382Z,6.17
2023-04-08T08:26:13.958Z,6.07
2023-04-08T08:28:46.321Z,6.03
2023-04-08T08:31:14.794Z,5.90
2023-04-08T08:33:43.659Z,5.59
2023-04-08T08:36:14.939Z,5.55
2023-04-08T08:38:43.606Z,5.44
2023-04-08T08:41:12.203Z,5.50
2023-04-08T08:43:42.814Z,5.45
2023-04-08T08:46:12.432Z,5.24
2023-04-08T08:48:41.191Z,5.37
2023-04-08T08:51:10.212Z,5.26
2023-04-08T08:53:45.604Z,5.13
2023-04-08T08:56:18.769Z,5.15
2023-04-08T08:58:48.093Z,5.14
2023-04-08T09:01:30.420Z,5.10
2023-04-08T09:04:09.061Z,5.08
2023-04-08T09:06:39.869Z,4.98
2023-04-08T09:09:12.262Z,5.02
2023-04-08T09:11:41.666Z,4.89
2023-04-08T09:14:18.768Z,4.87
2023-04-08T09:16:48.047Z,4.94
2023-04-08T09:19:17.016Z,4.87
2023-04-08T09:21:47.936Z,4.87
2023-04-08T09:24:29.568Z,4.71
2023-04-08T09:26:58.336Z,4.44
2023-04-08T09:29:30.053Z,4.44
2023-04-08T09:32:01.445Z,4.35
2023-04-08T09:34:32.708Z,4.23
2023-04-08T09:37:02.253Z,4.02
2023-04-08T09:39:32.576Z,3.95
2023-04-08T09:42:04.090Z,4.01
2023-04-08T09:44:32.931Z,3.99
2023-04-08T09:47:02.429Z,4.19
2023-04-08T09:49:38.711Z,4.37
2023-04-08T09:52:11.673Z,4.49
2023-04-08T09:54:40.584Z,4.46
2023-04-08T09:57:17.058Z,4.40
2023-04-08T09:59:51.651Z,4.36
2023-04-08T10:02:21.810Z,4.50
2023-04-08T10:04:50.647Z,4.52
2023-04-08T10:07:19.651Z,4.46
2023-04-08T10:09:48.502Z,4.28
2023-04-08T10:12:17.351Z,4.27
2023-04-08T10:15:04.986Z,4.07
2023-04-08T10:17:37.201Z,3.89
2023-04-08T10:20:06.199Z,3.91
2023-04-08T10:22:35.092Z,3.97
2023-04-08T10:25:15.918Z,4.11
2023-04-08T10:27:44.944Z,4.38
2023-04-08T10:30:29.142Z,4.42
2023-04-08T10:33:00.237Z,4.25
2023-04-08T10:35:30.399Z,4.16
2023-04-08T10:37:59.383Z,4.01
2023-04-08T10:40:28.208Z,4.17
2023-04-08T10:42:57.032Z,4.15
2023-04-08T10:45:30.292Z,4.02
2023-04-08T10:48:19.640Z,3.89
2023-04-08T10:50:57.972Z,3.96
2023-04-08T10:53:27.717Z,3.90
2023-04-08T10:56:15.813Z,4.01
2023-04-08T10:58:50.146Z,4.19
2023-04-08T11:01:19.123Z,4.27
2023-04-08T11:03:47.967Z,4.22
2023-04-08T11:06:16.759Z,4.12
2023-04-08T11:08:45.970Z,4.07
2023-04-08T11:11:15.170Z,4.20
2023-04-08T11:13:52.622Z,4.24
2023-04-08T11:16:23.750Z,4.25
2023-04-08T11:18:52.466Z,4.19
2023-04-08T11:21:26.180Z,4.10
2023-04-08T11:23:55.224Z,3.79
2023-04-08T11:26:23.909Z,3.73
2023-04-08T11:28:54.506Z,3.69
2023-04-08T11:31:24.914Z,3.52
2023-04-08T11:33:57.137Z,3.37
2023-04-08T11:36:27.527Z,3.25
2023-04-08T11:38:56.222Z,2.98
2023-04-08T11:41:36.181Z,2.96
2023-04-08T11:44:05.830Z,2.69
2023-04-08T11:46:35.740Z,2.53
2023-04-08T11:49:05.570Z,2.63
2023-04-08T11:51:55.210Z,2.52
2023-04-08T11:54:30.478Z,2.31
2023-04-08T11:56:59.483Z,2.25
2023-04-08T11:59:29.937Z,1.91
2023-04-08T12:01:59.381Z,1.93
2023-04-08T12:04:28.185Z,2.08
2023-04-08T12:06:58.378Z,2.34
2023-04-08T12:09:28.699Z,2.39
2023-04-08T12:11:58.359Z,2.31
2023-04-08T12:14:28.431Z,2.48
2023-04-08T12:16:57.357Z,2.25
2023-04-08T12:19:33.886Z,2.04
2023-04-08T12:22:03.903Z,2.22
2023-04-08T12:24:32.768Z,2.17
2023-04-08T12:27:02.852Z,2.12
2023-04-08T12:29:32.794Z,2.26
2023-04-08T12:32:02.746Z,2.23
2023-04-08T12:34:33.118Z,2.18
2023-04-08T12:37:02.747Z,1.85
2023-04-08T12:39:33.707Z,1.85
2023-04-08T12:42:03.818Z,1.91
2023-04-08T12:44:32.517Z,1.64
2023-04-08T12:47:01.638Z,1.71
2023-04-08T12:49:30.980Z,2.13
2023-04-08T12:52:05.778Z,2.27
2023-04-08T12:54:34.542Z,2.41
2023-04-08T12:57:03.199Z,2.52
2023-04-08T12:59:33.822Z,2.60
2023-04-08T13:02:03.166Z,2.95
2023-04-08T13:04:31.889Z,3.32
2023-04-08T13:07:01.344Z,3.66
2023-04-08T13:09:31.015Z,4.03
2023-04-08T13:12:00.514Z,4.46
2023-04-08T13:14:31.880Z,5.23
2023-04-08T13:17:00.596Z,5.73
2023-04-08T13:19:31.665Z,6.07
2023-04-08T13:22:01.002Z,6.38
2023-04-08T13:24:30.116Z,6.62
2023-04-08T13:26:58.750Z,6.82
2023-04-08T13:29:28.738Z,6.95
2023-04-08T13:31:57.724Z,7.02
2023-04-08T13:34:26.506Z,7.39
2023-04-08T13:36:55.864Z,7.55
2023-04-08T13:39:25.206Z,7.60
2023-04-08T13:41:54.056Z,7.72
2023-04-08T13:44:22.925Z,7.83
2023-04-08T13:46:51.971Z,7.95
2023-04-08T13:49:21.050Z,7.98
2023-04-08T13:51:50.215Z,8.16
2023-04-08T13:54:24.296Z,7.96
2023-04-08T13:56:52.949Z,7.83
2023-04-08T13:59:21.642Z,7.79
2023-04-08T14:01:54.362Z,8.13
2023-04-08T14:04:23.519Z,8.38
2023-04-08T14:06:53.436Z,8.63
2023-04-08T14:09:22.028Z,8.75
2023-04-08T14:11:51.540Z,8.94
2023-04-08T14:14:20.194Z,8.94
2023-04-08T14:16:51.722Z,8.73
2023-04-08T14:19:20.652Z,8.72
2023-04-08T14:21:49.414Z,8.55
2023-04-08T14:24:18.436Z,8.28
2023-04-08T14:26:46.992Z,8.25
2023-04-08T14:29:16.381Z,8.29
2023-04-08T14:31:44.997Z,8.21
2023-04-08T14:34:13.675Z,8.12
2023-04-08T14:36:43.419Z,8.13
2023-04-08T14:39:12.630Z,8.27
2023-04-08T14:41:41.671Z,8.50
2023-04-08T14:44:10.417Z,8.73
2023-04-08T14:46:40.004Z,8.86
2023-04-08T14:49:09.088Z,8.96
2023-04-08T14:51:38.337Z,8.91
2023-04-08T14:54:07.953Z,8.82
2023-04-08T14:56:37.329Z,8.70
2023-04-08T14:59:06.394Z,8.64
2023-04-08T15:01:36.118Z,8.68
2023-04-08T15:04:05.285Z,8.84
2023-04-08T15:06:34.073Z,8.88
2023-04-08T15:09:02.774Z,8.87
2023-04-08T15:11:31.429Z,8.92
2023-04-08T15:14:08.790Z,9.06
2023-04-08T15:16:38.582Z,9.08
2023-04-08T15:19:07.337Z,8.96
2023-04-08T15:21:36.308Z,8.54
2023-04-08T15:24:04.930Z,8.39
2023-04-08T15:26:33.623Z,8.22
2023-04-08T15:29:04.521Z,8.04
2023-04-08T15:31:33.886Z,7.93
2023-04-08T15:34:03.811Z,7.75
2023-04-08T15:36:32.932Z,7.84
2023-04-08T15:39:01.890Z,7.76
2023-04-08T15:41:32.706Z,7.90
2023-04-08T15:44:01.433Z,7.93
2023-04-08T15:46:30.270Z,7.78
2023-04-08T15:49:00.886Z,7.87
2023-04-08T15:51:30.129Z,7.87
2023-04-08T15:53:58.988Z,7.54
2023-04-08T15:56:29.942Z,7.42
2023-04-08T15:59:01.211Z,7.33
2023-04-08T16:01:30.255Z,7.38
2023-04-08T16:04:01.269Z,7.41
2023-04-08T16:06:30.681Z,7.29
2023-04-08T16:08:59.466Z,7.53
2023-04-08T16:11:36.385Z,7.48
2023-04-08T16:14:07.242Z,7.72
2023-04-08T16:16:38.884Z,7.82
2023-04-08T16:19:13.175Z,7.79
2023-04-08T16:21:42.006Z,7.94
2023-04-08T16:24:10.825Z,7.91
2023-04-08T16:26:39.748Z,7.84
2023-04-08T16:29:08.912Z,7.77
2023-04-08T16:31:37.621Z,7.97
2023-04-08T16:34:06.328Z,8.01
2023-04-08T16:36:34.929Z,8.00
2023-04-08T16:39:04.323Z,8.06
2023-04-08T16:41:33.334Z,8.10
2023-04-08T16:44:02.218Z,8.25
2023-04-08T16:46:31.149Z,8.33
2023-04-08T16:48:59.968Z,8.34
2023-04-08T16:51:29.380Z,8.48
2023-04-08T16:53:59.203Z,8.51
2023-04-08T16:56:30.037Z,8.50
2023-04-08T16:58:58.734Z,8.58
2023-04-08T17:01:29.848Z,8.77
2023-04-08T17:03:58.810Z,8.98
2023-04-08T17:06:27.816Z,8.79
2023-04-08T17:08:57.777Z,8.88
2023-04-08T17:11:26.614Z,8.94
2023-04-08T17:13:55.338Z,9.08
2023-04-08T17:16:27.440Z,9.12
2023-04-08T17:18:56.977Z,9.07
2023-04-08T17:21:27.191Z,9.17
2023-04-08T17:23:57.021Z,9.22
2023-04-08T17:26:26.609Z,9.14
2023-04-08T17:28:55.216Z,9.15
2023-04-08T17:31:24.170Z,9.20
2023-04-08T17:33:53.079Z,9.07
2023-04-08T17:36:21.711Z,9.12
2023-04-08T17:38:53.362Z,8.98
2023-04-08T17:41:37.965Z,9.00
2023-04-08T17:44:12.047Z,8.98
2023-04-08T17:46:41.897Z,8.84
2023-04-08T17:49:14.988Z,8.93
2023-04-08T17:51:44.359Z,8.98
2023-04-08T17:54:13.240Z,8.89
2023-04-08T17:56:49.048Z,8.97
2023-04-08T17:59:18.208Z,9.26
2023-04-08T18:01:48.269Z,9.58
2023-04-08T18:04:17.983Z,9.61
2023-04-08T18:06:46.834Z,9.79
2023-04-08T18:09:21.382Z,9.82
2023-04-08T18:11:50.421Z,9.78
2023-04-08T18:14:19.056Z,9.71
2023-04-08T18:16:55.045Z,9.66
2023-04-08T18:19:26.457Z,9.56
2023-04-08T18:21:55.859Z,9.50
2023-04-08T18:24:24.510Z,9.60
2023-04-08T18:27:03.561Z,9.64
2023-04-08T18:29:33.576Z,9.26
2023-04-08T18:32:02.103Z,8.97
2023-04-08T18:34:32.264Z,8.88
2023-04-08T18:37:05.516Z,8.76
2023-04-08T18:39:34.317Z,8.71
2023-04-08T18:42:04.002Z,8.87
2023-04-08T18:44:33.416Z,8.94
2023-04-08T18:47:02.670Z,8.85
2023-04-08T18:49:34.161Z,8.65
2023-04-08T18:52:03.688Z,8.57
2023-04-08T18:54:32.881Z,8.37
2023-04-08T18:57:03.134Z,8.17
2023-04-08T18:59:32.980Z,7.96
2023-04-08T19:02:01.830Z,7.77
2023-04-08T19:04:31.247Z,7.80
2023-04-08T19:06:59.855Z,7.95
2023-04-08T19:09:28.478Z,8.07
2023-04-08T19:11:57.692Z,7.90
2023-04-08T19:14:26.714Z,7.91
2023-04-08T19:16:56.999Z,7.89
2023-04-08T19:19:26.358Z,7.93
2023-04-08T19:21:55.468Z,8.04
2023-04-08T19:24:26.720Z,8.23
2023-04-08T19:26:55.501Z,8.29
2023-04-08T19:29:33.870Z,8.62
2023-04-08T19:32:04.395Z,8.78
2023-04-08T19:34:36.585Z,8.76
2023-04-08T19:37:06.710Z,8.82
2023-04-08T19:39:35.318Z,9.03
2023-04-08T19:42:04.468Z,9.06
2023-04-08T19:44:33.368Z,8.90
2023-04-08T19:47:01.946Z,8.77
2023-04-08T19:49:31.653Z,8.85
2023-04-08T19:52:00.052Z,8.92
2023-04-08T19:54:30.378Z,8.92
2023-04-08T19:56:59.487Z,9.06
2023-04-08T19:59:28.047Z,9.30
2023-04-08T20:01:56.915Z,9.29
2023-04-08T20:04:25.778Z,9.37
2023-04-08T20:06:54.301Z,9.29
2023-04-08T20:09:23.133Z,9.48
2023-04-08T20:11:51.634Z,9.63
2023-04-08T20:14:20.217Z,9.60
2023-04-08T20:16:48.801Z,9.74
2023-04-08T20:19:18.019Z,9.78
2023-04-08T20:21:49.105Z,9.70
2023-04-08T20:24:18.052Z,9.80
2023-04-08T20:26:46.694Z,9.76
2023-04-08T20:29:15.455Z,9.87
2023-04-08T20:31:45.083Z,9.81
2023-04-08T20:34:18.309Z,9.70
2023-04-08T20:36:48.060Z,9.65
2023-04-08T20:39:16.572Z,9.71
2023-04-08T20:41:45.028Z,9.75
2023-04-08T20:44:13.617Z,9.77
2023-04-08T20:46:47.893Z,9.59
2023-04-08T20:49:19.037Z,9.59
2023-04-08T20:51:47.673Z,9.48
2023-04-08T20:54:16.876Z,9.60
2023-04-08T20:56:45.252Z,9.52
2023-04-08T20:59:17.474Z,9.52
2023-04-08T21:01:48.435Z,9.59
2023-04-08T21:04:17.007Z,9.52
2023-04-08T21:06:45.706Z,9.39
2023-04-08T21:09:15.234Z,9.32
2023-04-08T21:11:43.645Z,9.36
2023-04-08T21:14:17.185Z,9.35
2023-04-08T21:16:46.793Z,9.33
2023-04-08T21:19:15.953Z,9.19
2023-04-08T21:21:50.108Z,9.23
2023-04-08T21:24:18.816Z,9.29
2023-04-08T21:26:47.324Z,9.25
2023-04-08T21:29:17.475Z,9.15
2023-04-08T21:31:46.057Z,9.10
2023-04-08T21:34:15.295Z,9.05
2023-04-08T21:36:46.603Z,9.00
2023-04-08T21:39:15.151Z,9.03
2023-04-08T21:41:43.803Z,9.15
2023-04-08T21:44:12.658Z,9.06
2023-04-08T21:46:41.329Z,9.07
2023-04-08T21:49:11.561Z,8.98
2023-04-08T21:51:41.214Z,9.01
2023-04-08T21:54:09.778Z,8.97
2023-04-08T21:56:38.891Z,9.03
2023-04-08T21:59:07.503Z,8.84
2023-04-08T22:01:37.588Z,8.89
2023-04-08T22:04:07.102Z,9.03
2023-04-08T22:06:35.903Z,9.09
2023-04-08T22:09:05.445Z,9.10
2023-04-08T22:11:33.902Z,9.27
2023-04-08T22:14:02.292Z,9.39
2023-04-08T22:16:32.430Z,9.54
2023-04-08T22:19:01.058Z,9.56
2023-04-08T22:21:29.596Z,9.58
2023-04-08T22:23:59.085Z,9.45
2023-04-08T22:26:27.958Z,9.59
2023-04-08T22:29:00.462Z,9.80
2023-04-08T22:31:29.884Z,9.93
2023-04-08T22:34:00.292Z,10.09
2023-04-08T22:36:28.859Z,10.05
2023-04-08T22:38:58.081Z,10.19
2023-04-08T22:41:26.794Z,10.33
2023-04-08T22:43:55.092Z,10.28
2023-04-08T22:46:24.651Z,10.08
2023-04-08T22:48:53.685Z,10.08
2023-04-08T22:51:23.106Z,10.10
2023-04-08T22:53:51.501Z,9.87
2023-04-08T22:56:19.868Z,10.01
2023-04-08T22:58:50.426Z,9.96
2023-04-08T23:01:21.460Z,9.88
2023-04-08T23:03:50.814Z,9.77
2023-04-08T23:06:19.991Z,9.98
2023-04-08T23:08:51.788Z,10.06
2023-04-08T23:11:20.380Z,9.95
2023-04-08T23:13:56.489Z,9.86
2023-04-08T23:16:25.279Z,9.89
2023-04-08T23:18:54.416Z,10.10
2023-04-08T23:21:27.324Z,10.13
2023-04-08T23:23:56.188Z,10.11
2023-04-08T23:26:25.635Z,10.15
2023-04-08T23:28:55.793Z,10.10
2023-04-08T23:31:24.499Z,9.88
2023-04-08T23:33:53.687Z,9.95
2023-04-08T23:36:23.333Z,10.16
2023-04-08T23:38:52.951Z,10.26
2023-04-08T23:41:21.501Z,10.31
2023-04-08T23:43:54.282Z,10.19
2023-04-08T23:46:22.945Z,10.27
2023-04-08T23:48:56.414Z,10.25
2023-04-08T23:51:26.879Z,10.21
2023-04-08T23:53:56.581Z,10.12
2023-04-08T23:56:25.199Z,10.04
2023-04-08T23:58:53.827Z,10.05
